Time;durP1;ratioP1;P1;durP2;ratioP2;P2;SDS_P1;SDS_P2;PMS_P1;PMS_P2;Temp;Humidity;BMP_temperature;BMP_pressure;BME280_temperature;BME280_humidity;BME280_pressure;Samples;Min_cycle;Max_cycle;Signal;HPM_P1;HPM_P2
2023/01/16 00:01:18;;;;;;;3.30;1.40;;;5.70;99.90;;;;;;5013073;28;20215;-57
2023/01/16 00:03:45;;;;;;;1.30;0.80;;;5.70;99.90;;;;;;5013322;28;20233;-56
2023/01/16 00:06:12;;;;;;;5.87;1.20;;;5.60;99.90;;;;;;5013002;28;20445;-56
2023/01/16 00:08:38;;;;;;;3.50;0.90;;;5.50;99.90;;;;;;5013059;28;20254;-56
2023/01/16 00:11:06;;;;;;;3.37;0.63;;;5.50;99.90;;;;;;5012886;28;20592;-56
2023/01/16 00:13:33;;;;;;;2.00;0.70;;;5.50;99.90;;;;;;5012818;28;20214;-56
2023/01/16 00:16:00;;;;;;;3.23;0.80;;;5.60;99.90;;;;;;5012290;28;20601;-57
2023/01/16 00:18:27;;;;;;;3.43;0.80;;;5.70;99.90;;;;;;5013038;28;20704;-56
2023/01/16 00:20:54;;;;;;;3.07;0.70;;;5.80;99.90;;;;;;5012763;28;20214;-56
2023/01/16 00:23:20;;;;;;;2.70;0.80;;;5.90;99.90;;;;;;5012776;28;20575;-56
2023/01/16 00:25:47;;;;;;;2.53;0.80;;;6.00;99.90;;;;;;5012654;28;20675;-56
2023/01/16 00:28:16;;;;;;;4.07;0.90;;;6.10;99.90;;;;;;5012733;28;20226;-58
2023/01/16 00:30:44;;;;;;;4.87;1.13;;;6.20;99.90;;;;;;5012754;28;20651;-58
2023/01/16 00:33:11;;;;;;;2.00;0.80;;;6.30;99.90;;;;;;5013041;28;20234;-58
2023/01/16 00:35:37;;;;;;;3.07;0.67;;;6.30;99.90;;;;;;5012564;28;20203;-58
2023/01/16 00:38:04;;;;;;;1.97;0.60;;;6.40;99.90;;;;;;5012570;28;20719;-58
2023/01/16 00:40:31;;;;;;;2.63;0.93;;;6.50;99.90;;;;;;5012682;28;20671;-58
2023/01/16 00:42:58;;;;;;;1.63;0.63;;;6.60;99.90;;;;;;5013200;28;20207;-58
2023/01/16 00:45:26;;;;;;;3.20;1.00;;;6.70;99.90;;;;;;5012759;28;20207;-59
2023/01/16 00:47:53;;;;;;;2.73;0.80;;;6.80;99.90;;;;;;5012299;28;20628;-58
2023/01/16 00:50:20;;;;;;;1.13;0.63;;;6.80;99.90;;;;;;5012837;28;20207;-58
2023/01/16 00:52:46;;;;;;;5.17;1.07;;;6.80;99.90;;;;;;5013744;28;20210;-58
2023/01/16 00:55:13;;;;;;;3.33;1.00;;;6.80;99.90;;;;;;5016461;28;20213;-56
2023/01/16 00:57:40;;;;;;;2.27;0.90;;;6.90;99.90;;;;;;5016139;28;20238;-58
2023/01/16 01:00:08;;;;;;;1.97;0.73;;;6.90;99.90;;;;;;5016387;28;20203;-57
2023/01/16 01:02:36;;;;;;;3.63;0.97;;;6.90;99.90;;;;;;5016571;28;20672;-57
2023/01/16 01:05:03;;;;;;;1.97;0.67;;;6.90;99.90;;;;;;5016451;28;20290;-57
2023/01/16 01:07:30;;;;;;;1.73;0.93;;;6.90;99.90;;;;;;5015964;28;20706;-56
2023/01/16 01:09:56;;;;;;;2.63;0.80;;;6.80;99.90;;;;;;5015832;28;20229;-57
2023/01/16 01:12:23;;;;;;;4.77;1.30;;;6.80;99.90;;;;;;5016254;28;20210;-57
2023/01/16 01:14:50;;;;;;;2.67;0.70;;;6.80;99.90;;;;;;5015971;28;20226;-56
2023/01/16 01:17:17;;;;;;;1.80;0.80;;;6.70;99.90;;;;;;5015911;28;20210;-55
2023/01/16 01:19:45;;;;;;;2.77;0.70;;;6.80;99.90;;;;;;5016157;28;20203;-55
2023/01/16 01:22:12;;;;;;;3.50;1.20;;;6.80;99.90;;;;;;5016135;28;20203;-57
2023/01/16 01:24:39;;;;;;;1.93;0.60;;;6.80;99.90;;;;;;5015889;28;20211;-55
2023/01/16 01:27:05;;;;;;;3.60;0.77;;;6.70;99.90;;;;;;5016000;28;20215;-55
2023/01/16 01:29:32;;;;;;;1.20;0.80;;;6.60;99.90;;;;;;5016012;28;20254;-55
2023/01/16 01:31:59;;;;;;;1.67;0.50;;;6.50;99.90;;;;;;5015913;28;20211;-55
2023/01/16 01:34:25;;;;;;;3.20;0.83;;;6.40;99.90;;;;;;5015839;28;20691;-56
2023/01/16 01:36:54;;;;;;;2.70;0.80;;;6.20;99.90;;;;;;5015531;28;20214;-57
2023/01/16 01:39:20;;;;;;;3.00;1.00;;;6.10;99.90;;;;;;5015705;28;20219;-56
2023/01/16 01:41:47;;;;;;;4.73;0.70;;;6.00;99.90;;;;;;5015975;28;20221;-55
2023/01/16 01:44:49;;;;;;;1.70;0.83;;;5.90;99.90;;;;;;5015770;28;20230;-56
2023/01/16 01:47:20;;;;;;;3.13;0.73;;;5.80;99.90;;;;;;5015331;28;20656;-56
2023/01/16 01:49:48;;;;;;;3.50;0.80;;;5.80;99.90;;;;;;5015565;28;20588;-55
2023/01/16 01:52:18;;;;;;;2.43;0.60;;;5.70;99.90;;;;;;5015361;28;20213;-55
2023/01/16 01:54:49;;;;;;;4.83;1.00;;;5.70;99.90;;;;;;5015200;28;20215;-55
2023/01/16 01:57:20;;;;;;;1.37;0.60;;;5.60;99.90;;;;;;5014981;28;20210;-55
2023/01/16 01:59:53;;;;;;;3.73;0.90;;;5.50;99.90;;;;;;5015056;28;20663;-53
2023/01/16 02:02:23;;;;;;;2.27;0.80;;;5.40;99.90;;;;;;5015197;28;20211;-54
2023/01/16 02:04:56;;;;;;;1.27;0.70;;;5.40;99.90;;;;;;5013720;28;20206;-57
2023/01/16 02:07:27;;;;;;;4.17;0.90;;;5.30;99.90;;;;;;5014844;28;20235;-54
2023/01/16 02:10:01;;;;;;;3.93;1.00;;;5.20;99.90;;;;;;5014730;28;20231;-54
2023/01/16 02:12:28;;;;;;;2.67;0.73;;;5.20;99.90;;;;;;5014620;28;20230;-54
2023/01/16 02:14:56;;;;;;;3.33;0.73;;;5.20;99.90;;;;;;5014981;28;20214;-54
2023/01/16 02:20:17;;;;;;;1.73;0.67;;;5.20;99.90;;;;;;5014548;28;20581;-54
2023/01/16 02:23:23;;;;;;;2.23;0.70;;;5.20;99.90;;;;;;5014364;28;20210;-54
2023/01/16 02:26:32;;;;;;;3.23;0.80;;;5.10;99.90;;;;;;5014236;28;20218;-54
2023/01/16 02:29:27;;;;;;;1.40;0.77;;;5.10;99.90;;;;;;5014379;28;20223;-54
2023/01/16 02:32:04;;;;;;;1.50;0.70;;;4.90;99.90;;;;;;5014678;28;20223;-54
2023/01/16 02:34:44;;;;;;;1.70;0.80;;;4.90;99.90;;;;;;5014369;28;20226;-53
2023/01/16 02:37:22;;;;;;;2.17;0.87;;;4.90;99.90;;;;;;5013951;28;20206;-54
2023/01/16 02:39:58;;;;;;;4.23;0.70;;;4.90;99.90;;;;;;5014356;28;20214;-54
2023/01/16 02:42:42;;;;;;;2.30;0.70;;;4.80;99.90;;;;;;5014383;28;20239;-54
2023/01/16 02:45:15;;;;;;;2.77;0.77;;;4.70;99.90;;;;;;5014358;28;20202;-54
2023/01/16 02:47:47;;;;;;;2.27;0.80;;;4.70;99.90;;;;;;5013897;28;20242;-54
2023/01/16 02:50:21;;;;;;;1.07;0.63;;;4.70;99.90;;;;;;5014086;28;20230;-54
2023/01/16 02:52:55;;;;;;;2.80;0.80;;;4.70;99.90;;;;;;5014372;28;20211;-54
2023/01/16 02:55:29;;;;;;;3.17;0.87;;;4.70;99.90;;;;;;5014378;28;20187;-54
2023/01/16 02:58:00;;;;;;;1.80;0.90;;;4.80;99.90;;;;;;5014179;28;20230;-54
2023/01/16 03:00:28;;;;;;;4.80;0.87;;;4.80;99.90;;;;;;5013969;28;20217;-54
2023/01/16 03:02:56;;;;;;;4.20;0.87;;;4.70;99.90;;;;;;5014513;28;20204;-54
2023/01/16 03:05:24;;;;;;;2.03;0.60;;;4.70;99.90;;;;;;5013773;28;20239;-54
2023/01/16 03:08:25;;;;;;;6.70;1.20;;;4.70;99.90;;;;;;5013829;28;20237;-55
2023/01/16 03:11:22;;;;;;;5.03;0.60;;;4.70;99.90;;;;;;5013577;28;20258;-54
2023/01/16 03:14:16;;;;;;;2.87;1.07;;;4.70;99.90;;;;;;5013975;28;20211;-54
2023/01/16 03:16:57;;;;;;;1.90;0.80;;;4.60;99.90;;;;;;5004036;28;20348;-54
2023/01/16 03:19:37;;;;;;;3.00;0.83;;;4.60;99.90;;;;;;5013889;28;20223;-54
2023/01/16 03:22:12;;;;;;;1.73;0.70;;;4.60;99.90;;;;;;5013569;28;20218;-54
2023/01/16 03:24:53;;;;;;;1.43;0.77;;;4.60;99.90;;;;;;5013442;28;20207;-54
2023/01/16 03:27:30;;;;;;;1.70;0.80;;;4.60;99.90;;;;;;5013052;28;20210;-54
2023/01/16 03:30:02;;;;;;;3.57;1.00;;;4.60;99.90;;;;;;5013627;28;20226;-54
2023/01/16 03:32:34;;;;;;;3.43;0.87;;;4.60;99.90;;;;;;5013793;28;20234;-54
2023/01/16 03:35:07;;;;;;;1.10;0.67;;;4.60;99.90;;;;;;5013547;28;20213;-54
2023/01/16 03:37:40;;;;;;;2.30;0.80;;;4.60;99.90;;;;;;5013512;28;20686;-54
2023/01/16 03:40:11;;;;;;;1.60;0.63;;;4.80;99.90;;;;;;5013746;28;20309;-55
2023/01/16 03:42:56;;;;;;;2.37;0.93;;;4.90;99.90;;;;;;5013806;28;20207;-54
2023/01/16 03:45:27;;;;;;;3.03;0.57;;;4.90;99.90;;;;;;5013000;28;20214;-54
2023/01/16 03:48:01;;;;;;;1.77;0.67;;;5.00;99.90;;;;;;5013257;28;20731;-54
2023/01/16 03:50:31;;;;;;;3.60;0.70;;;5.00;99.90;;;;;;5013390;28;20237;-54
2023/01/16 03:53:00;;;;;;;1.43;0.60;;;5.00;99.90;;;;;;5013747;28;20699;-55
2023/01/16 03:55:32;;;;;;;2.33;0.70;;;4.90;99.90;;;;;;5012860;28;20582;-54
2023/01/16 03:58:03;;;;;;;1.93;0.80;;;4.90;99.90;;;;;;5013244;28;20230;-54
2023/01/16 04:00:40;;;;;;;1.40;0.60;;;4.90;99.90;;;;;;5013148;28;20210;-55
2023/01/16 04:03:11;;;;;;;5.27;1.40;;;4.90;99.90;;;;;;5013108;28;20214;-54
2023/01/16 04:05:48;;;;;;;3.60;0.97;;;5.00;99.90;;;;;;5012947;28;20217;-54
2023/01/16 04:08:19;;;;;;;3.70;1.20;;;5.00;99.90;;;;;;5013028;28;20227;-54
2023/01/16 04:10:48;;;;;;;2.57;1.27;;;4.90;99.90;;;;;;5012801;28;20234;-54
2023/01/16 04:13:19;;;;;;;3.23;1.63;;;4.90;99.90;;;;;;5012825;28;20214;-54
2023/01/16 04:15:51;;;;;;;2.00;1.23;;;4.80;99.90;;;;;;5012912;28;20207;-54
2023/01/16 04:18:20;;;;;;;3.47;0.97;;;4.80;99.90;;;;;;5013068;28;20230;-54
2023/01/16 04:20:50;;;;;;;4.20;1.03;;;4.70;99.90;;;;;;5013288;28;20214;-55
2023/01/16 04:23:17;;;;;;;2.63;0.87;;;4.70;99.90;;;;;;5013078;28;20207;-54
2023/01/16 04:25:45;;;;;;;1.97;1.00;;;4.70;99.90;;;;;;5012438;28;20207;-55
2023/01/16 04:28:12;;;;;;;2.93;0.73;;;4.70;99.90;;;;;;5014849;28;20281;-54
2023/01/16 04:30:38;;;;;;;2.77;1.00;;;4.70;99.90;;;;;;5016670;28;20227;-55
2023/01/16 04:33:05;;;;;;;2.37;0.73;;;4.70;99.90;;;;;;5016626;28;20404;-54
2023/01/16 04:35:33;;;;;;;1.33;0.70;;;4.60;99.90;;;;;;5016280;28;20682;-54
2023/01/16 04:38:01;;;;;;;1.43;0.80;;;4.60;99.90;;;;;;5016472;28;20719;-53
2023/01/16 04:40:28;;;;;;;3.27;0.60;;;4.60;99.90;;;;;;5016456;28;20214;-54
2023/01/16 04:42:55;;;;;;;1.37;0.53;;;4.50;99.90;;;;;;5016691;28;20497;-54
2023/01/16 04:45:22;;;;;;;2.07;1.17;;;4.50;99.90;;;;;;5016427;28;20219;-54
2023/01/16 04:47:49;;;;;;;2.53;1.13;;;4.50;99.90;;;;;;5016343;28;20614;-54
2023/01/16 04:50:17;;;;;;;2.33;0.83;;;4.60;99.90;;;;;;5016250;28;20230;-54
2023/01/16 04:52:44;;;;;;;2.67;0.90;;;4.50;99.90;;;;;;5016060;28;20217;-54
2023/01/16 04:55:13;;;;;;;2.80;1.17;;;4.50;99.90;;;;;;5016227;28;20213;-55
2023/01/16 04:57:40;;;;;;;1.20;0.60;;;4.50;99.90;;;;;;5016113;28;20602;-54
2023/01/16 05:00:10;;;;;;;2.23;1.00;;;4.50;99.90;;;;;;5016622;28;20211;-54
2023/01/16 05:02:37;;;;;;;4.90;2.10;;;4.50;99.90;;;;;;5016610;28;20207;-54
2023/01/16 05:05:04;;;;;;;2.30;0.80;;;4.50;99.90;;;;;;5016191;28;20698;-54
2023/01/16 05:07:31;;;;;;;2.33;1.40;;;4.50;99.90;;;;;;5015820;28;20207;-54
2023/01/16 05:09:58;;;;;;;4.73;1.87;;;4.50;99.90;;;;;;5016297;28;20226;-55
2023/01/16 05:12:26;;;;;;;2.87;1.27;;;4.40;99.90;;;;;;5016286;28;20213;-55
2023/01/16 05:14:52;;;;;;;2.77;0.77;;;4.40;99.90;;;;;;5016180;28;20207;-55
2023/01/16 05:17:22;;;;;;;3.10;1.50;;;4.40;99.90;;;;;;5015669;28;20214;-55
2023/01/16 05:19:49;;;;;;;2.33;1.07;;;4.40;99.90;;;;;;5015674;28;20232;-55
2023/01/16 05:22:16;;;;;;;2.63;1.07;;;4.40;99.90;;;;;;5015595;28;20218;-55
2023/01/16 05:24:42;;;;;;;2.33;0.90;;;4.40;99.90;;;;;;5015830;28;20214;-55
2023/01/16 05:27:09;;;;;;;3.70;1.27;;;4.40;99.90;;;;;;5015574;28;20233;-54
2023/01/16 05:29:37;;;;;;;2.57;0.90;;;4.40;99.90;;;;;;5015302;28;20234;-55
2023/01/16 05:32:05;;;;;;;1.70;0.83;;;4.50;99.90;;;;;;5015613;28;20207;-55
2023/01/16 05:34:31;;;;;;;1.93;1.13;;;4.50;99.90;;;;;;5015168;28;20218;-55
2023/01/16 05:36:58;;;;;;;7.50;3.40;;;4.50;99.90;;;;;;5015058;28;20203;-55
2023/01/16 05:39:25;;;;;;;5.53;2.50;;;4.50;99.90;;;;;;5015605;28;20223;-56
2023/01/16 05:41:52;;;;;;;3.30;1.30;;;4.50;99.90;;;;;;5015308;28;20215;-56
2023/01/16 05:44:19;;;;;;;3.60;1.10;;;4.40;99.90;;;;;;5015195;28;20207;-54
2023/01/16 05:46:47;;;;;;;2.27;1.10;;;4.30;99.90;;;;;;5015143;28;20301;-55
2023/01/16 05:49:13;;;;;;;3.23;1.10;;;4.40;99.90;;;;;;5015704;28;20235;-58
2023/01/16 05:51:40;;;;;;;1.90;0.80;;;4.30;99.90;;;;;;5016595;28;20223;-56
2023/01/16 05:54:11;;;;;;;3.87;1.30;;;4.30;99.90;;;;;;5016236;28;20207;-54
2023/01/16 05:56:38;;;;;;;4.30;1.17;;;4.20;99.90;;;;;;5016949;28;20241;-54
2023/01/16 05:59:05;;;;;;;1.97;1.23;;;4.10;99.90;;;;;;5017449;28;20241;-54
2023/01/16 06:01:31;;;;;;;2.57;1.00;;;4.00;99.90;;;;;;5016757;28;20210;-54
2023/01/16 06:03:59;;;;;;;2.40;1.07;;;3.80;99.90;;;;;;5016950;28;20213;-54
2023/01/16 06:06:26;;;;;;;2.80;1.00;;;3.70;99.90;;;;;;5016597;28;20318;-55
2023/01/16 06:08:53;;;;;;;3.53;0.87;;;3.60;99.90;;;;;;5016991;28;20597;-54
2023/01/16 06:11:20;;;;;;;2.47;0.90;;;3.50;99.90;;;;;;5016747;28;20226;-54
2023/01/16 06:13:47;;;;;;;2.40;1.10;;;3.30;99.90;;;;;;5015816;28;20218;-55
2023/01/16 06:16:14;;;;;;;4.73;0.90;;;3.30;99.90;;;;;;5015371;28;20257;-55
2023/01/16 06:18:40;;;;;;;2.07;1.20;;;3.30;99.90;;;;;;5014916;28;20630;-55
2023/01/16 06:21:09;;;;;;;3.53;1.50;;;3.30;99.90;;;;;;5014935;28;20679;-55
2023/01/16 06:23:35;;;;;;;2.77;1.67;;;3.30;99.90;;;;;;5014745;28;20297;-55
2023/01/16 06:26:05;;;;;;;3.90;1.50;;;3.40;99.90;;;;;;5014745;28;20211;-55
2023/01/16 06:28:32;;;;;;;3.27;1.00;;;3.30;99.90;;;;;;5014755;28;20254;-54
2023/01/16 06:30:59;;;;;;;1.40;0.63;;;3.20;99.90;;;;;;5014200;28;20269;-54
2023/01/16 06:33:25;;;;;;;1.40;0.73;;;3.10;99.90;;;;;;5014899;28;20207;-54
2023/01/16 06:35:52;;;;;;;3.20;0.90;;;3.00;99.90;;;;;;5014149;28;20211;-55
2023/01/16 06:38:21;;;;;;;2.70;0.80;;;3.00;99.90;;;;;;5014607;28;20249;-54
2023/01/16 06:40:48;;;;;;;5.27;0.90;;;3.00;99.90;;;;;;5014398;28;20227;-55
2023/01/16 06:43:16;;;;;;;2.60;1.23;;;3.00;99.90;;;;;;5014137;28;20207;-54
2023/01/16 06:45:44;;;;;;;7.80;1.60;;;3.00;99.90;;;;;;5014028;28;20289;-54
2023/01/16 06:48:11;;;;;;;4.93;2.20;;;3.00;99.90;;;;;;5014041;28;20281;-55
2023/01/16 06:50:38;;;;;;;4.13;1.57;;;2.90;99.90;;;;;;5013596;28;20572;-55
2023/01/16 06:53:05;;;;;;;4.30;1.70;;;2.90;99.90;;;;;;5013789;28;20210;-54
2023/01/16 06:55:33;;;;;;;3.10;1.30;;;2.90;99.90;;;;;;5013740;28;20293;-54
2023/01/16 06:58:00;;;;;;;5.80;1.40;;;2.90;99.90;;;;;;5013494;28;20230;-55
2023/01/16 07:00:27;;;;;;;4.40;1.70;;;2.90;99.90;;;;;;5013520;28;20602;-55
2023/01/16 07:02:56;;;;;;;2.87;1.27;;;2.90;99.90;;;;;;5013666;28;20625;-54
2023/01/16 07:05:24;;;;;;;2.27;1.40;;;3.00;99.90;;;;;;5013439;28;20218;-55
2023/01/16 07:07:51;;;;;;;3.73;1.40;;;3.10;99.90;;;;;;5013593;28;20782;-55
2023/01/16 07:10:20;;;;;;;3.53;1.43;;;3.30;99.90;;;;;;5013518;28;20206;-56
2023/01/16 07:12:48;;;;;;;6.97;2.00;;;3.40;99.90;;;;;;5013590;28;20213;-55
2023/01/16 07:23:47;;;;;;;3.20;1.07;;;3.60;99.90;;;;;;5007134;28;20229;-54
2023/01/16 07:26:17;;;;;;;4.10;1.60;;;3.50;99.90;;;;;;5013233;28;20235;-54
2023/01/16 07:28:45;;;;;;;2.27;1.30;;;3.50;99.90;;;;;;5013702;28;20235;-55
2023/01/16 07:31:13;;;;;;;3.43;1.43;;;3.50;99.90;;;;;;5013438;28;20618;-55
2023/01/16 07:33:40;;;;;;;2.47;1.23;;;3.50;99.90;;;;;;5013690;28;20203;-55
2023/01/16 07:36:07;;;;;;;4.17;1.70;;;3.60;99.90;;;;;;5012831;28;20211;-54
2023/01/16 07:38:34;;;;;;;1.23;0.93;;;3.60;99.90;;;;;;5013277;28;20227;-54
2023/01/16 07:41:00;;;;;;;1.50;0.70;;;3.60;99.90;;;;;;5013034;28;20226;-54
2023/01/16 07:43:27;;;;;;;3.57;1.13;;;3.70;99.90;;;;;;5013213;28;20211;-55
2023/01/16 07:45:55;;;;;;;2.47;0.90;;;3.80;99.90;;;;;;5012697;28;20671;-54
2023/01/16 07:48:23;;;;;;;3.43;1.20;;;3.80;99.90;;;;;;5013539;28;20325;-53
2023/01/16 07:50:51;;;;;;;1.60;1.00;;;3.80;99.90;;;;;;5013047;28;20219;-54
2023/01/16 07:53:21;;;;;;;3.73;1.20;;;3.90;99.90;;;;;;5012995;28;20211;-53
2023/01/16 07:55:49;;;;;;;1.93;1.10;;;3.90;99.90;;;;;;5013090;28;20206;-54
2023/01/16 07:58:16;;;;;;;3.17;1.00;;;4.00;99.90;;;;;;5012786;28;20227;-54
2023/01/16 08:00:42;;;;;;;2.37;1.10;;;4.10;99.90;;;;;;5012969;28;20237;-54
2023/01/16 08:03:11;;;;;;;1.60;1.10;;;4.20;99.90;;;;;;5012294;28;20214;-53
2023/01/16 08:05:38;;;;;;;2.63;1.63;;;4.30;99.90;;;;;;5012689;28;20583;-54
2023/01/16 08:08:05;;;;;;;2.03;1.17;;;4.40;99.90;;;;;;5012637;28;20234;-53
2023/01/16 08:10:32;;;;;;;2.97;1.27;;;4.50;99.90;;;;;;5013107;28;20199;-54
2023/01/16 08:12:59;;;;;;;1.80;1.10;;;4.50;99.90;;;;;;5012445;28;20214;-53
2023/01/16 08:15:25;;;;;;;1.50;0.90;;;4.60;99.90;;;;;;5012757;28;20207;-53
2023/01/16 08:17:52;;;;;;;4.10;1.20;;;4.70;99.90;;;;;;5012443;28;20719;-54
2023/01/16 08:20:20;;;;;;;2.40;1.07;;;4.80;99.90;;;;;;5012920;28;20198;-53
2023/01/16 08:22:51;;;;;;;4.30;1.20;;;5.10;99.90;;;;;;5013105;28;20206;-53
2023/01/16 08:25:19;;;;;;;2.47;1.33;;;5.20;99.90;;;;;;5012640;28;20333;-53
2023/01/16 08:27:46;;;;;;;1.23;0.73;;;5.30;99.90;;;;;;5012260;28;20226;-53
2023/01/16 08:30:14;;;;;;;1.60;0.60;;;5.30;99.90;;;;;;5012182;28;20211;-54
2023/01/16 08:32:40;;;;;;;0.90;0.60;;;5.50;99.90;;;;;;5012286;28;20211;-55
2023/01/16 08:35:09;;;;;;;1.00;0.57;;;5.70;99.90;;;;;;5012338;28;20293;-54
2023/01/16 08:37:37;;;;;;;1.33;0.65;;;5.80;99.90;;;;;;5017059;28;20476;-54
2023/01/16 08:40:05;;;;;;;1.20;0.60;;;6.10;99.90;;;;;;5030619;28;20206;-54
2023/01/16 08:53:34;;;;;;;4.37;1.37;;;6.80;99.90;;;;;;5031140;28;20248;-54
2023/01/16 08:56:01;;;;;;;2.63;1.10;;;6.80;99.90;;;;;;5030975;28;20234;-54
2023/01/16 08:58:27;;;;;;;4.20;1.30;;;6.90;99.90;;;;;;5031281;28;20317;-54
2023/01/16 09:00:54;;;;;;;3.33;1.73;;;7.00;99.90;;;;;;5030943;28;20320;-54
2023/01/16 09:03:21;;;;;;;3.10;1.90;;;6.90;99.90;;;;;;5031488;28;20217;-54
2023/01/16 09:05:48;;;;;;;2.37;1.30;;;6.90;99.90;;;;;;5030328;28;20202;-55
2023/01/16 09:08:14;;;;;;;2.10;1.03;;;6.80;99.90;;;;;;5031123;28;20254;-55
2023/01/16 09:13:48;;;;;;;1.43;0.67;;;6.80;99.90;;;;;;5031586;28;20248;-55
2023/01/16 09:16:13;;;;;;;2.73;0.70;;;6.80;99.90;;;;;;5034681;28;20681;-55
2023/01/16 09:18:40;;;;;;;1.13;0.80;;;6.90;99.90;;;;;;5034505;28;20256;-55
2023/01/16 09:21:07;;;;;;;1.10;0.70;;;7.00;99.90;;;;;;5034741;28;20229;-58
2023/01/16 09:23:34;;;;;;;1.60;0.70;;;7.00;99.90;;;;;;5034507;28;20238;-57
2023/01/16 09:26:02;;;;;;;1.00;0.70;;;6.90;99.90;;;;;;5034478;28;20221;-60
2023/01/16 09:28:29;;;;;;;1.57;0.80;;;6.90;99.90;;;;;;5034891;28;20230;-57
2023/01/16 09:30:56;;;;;;;2.43;0.80;;;6.90;99.90;;;;;;5034400;28;20206;-57
2023/01/16 09:33:23;;;;;;;1.43;0.83;;;6.90;99.90;;;;;;5034254;28;20210;-56
2023/01/16 09:35:49;;;;;;;2.00;0.83;;;6.90;99.90;;;;;;5033455;28;20675;-57
2023/01/16 09:38:16;;;;;;;0.90;0.53;;;6.90;99.90;;;;;;5033705;28;20222;-57
2023/01/16 09:40:49;;;;;;;0.63;0.47;;;7.00;99.90;;;;;;5034751;28;20206;-57
2023/01/16 09:43:35;;;;;;;1.87;0.70;;;7.10;99.90;;;;;;5034281;28;20209;-56
2023/01/16 09:46:07;;;;;;;4.20;0.80;;;7.20;99.90;;;;;;5034070;28;20202;-56
2023/01/16 09:48:36;;;;;;;1.40;0.70;;;7.30;99.90;;;;;;5034660;28;20241;-56
2023/01/16 09:51:06;;;;;;;0.53;0.50;;;7.40;99.90;;;;;;5034524;28;20674;-56
2023/01/16 09:59:25;;;;;;;0.73;0.33;;;7.50;99.90;;;;;;5033911;28;20647;-56
2023/01/16 10:01:58;;;;;;;1.00;0.30;;;7.60;99.90;;;;;;5034597;28;20321;-56
2023/01/16 10:04:28;;;;;;;0.70;0.30;;;7.50;99.90;;;;;;5034709;28;20207;-56
2023/01/16 10:07:19;;;;;;;0.83;0.47;;;7.70;99.90;;;;;;5033803;28;20612;-56
2023/01/16 10:09:52;;;;;;;0.93;0.70;;;7.90;99.90;;;;;;5033767;28;20240;-56
2023/01/16 10:12:22;;;;;;;0.67;0.30;;;8.00;99.90;;;;;;5033758;28;20685;-56
2023/01/16 10:15:01;;;;;;;1.60;0.40;;;8.20;99.90;;;;;;5033999;28;20264;-56
2023/01/16 10:17:38;;;;;;;0.93;0.70;;;8.30;99.90;;;;;;5033485;28;20305;-56
2023/01/16 10:20:37;;;;;;;1.10;0.40;;;8.50;99.90;;;;;;5033619;28;20620;-56
2023/01/16 10:23:14;;;;;;;1.47;0.70;;;8.60;99.90;;;;;;5033905;28;20238;-56
2023/01/16 10:25:47;;;;;;;0.60;0.30;;;8.60;99.90;;;;;;5032613;28;20209;-56
2023/01/16 10:28:27;;;;;;;0.67;0.40;;;8.60;99.90;;;;;;5033759;28;20253;-56
2023/01/16 10:30:58;;;;;;;0.80;0.43;;;8.50;99.90;;;;;;5033677;28;20221;-56
2023/01/16 10:33:31;;;;;;;1.10;0.83;;;8.60;99.90;;;;;;5033828;28;20217;-57
2023/01/16 10:36:00;;;;;;;1.87;1.23;;;8.40;99.90;;;;;;5033446;28;20304;-56
2023/01/16 10:38:45;;;;;;;4.57;1.07;;;8.20;99.90;;;;;;5033609;28;20226;-58
2023/01/16 10:49:29;;;;;;;1.83;1.00;;;7.60;99.90;;;;;;5033085;28;20241;-55
2023/01/16 10:51:59;;;;;;;1.27;0.90;;;7.60;99.90;;;;;;5033321;28;20206;-56
2023/01/16 10:54:26;;;;;;;2.17;0.67;;;7.60;99.90;;;;;;5033396;28;20667;-56
2023/01/16 10:56:53;;;;;;;1.33;0.40;;;7.60;99.90;;;;;;5033450;28;20216;-57
2023/01/16 10:59:21;;;;;;;1.07;0.60;;;7.60;99.90;;;;;;5033001;28;20222;-57
2023/01/16 11:01:51;;;;;;;1.50;0.40;;;7.70;99.90;;;;;;5033286;28;20249;-56
2023/01/16 11:04:20;;;;;;;0.80;0.40;;;7.90;99.90;;;;;;5032726;28;20621;-57
2023/01/16 11:06:47;;;;;;;0.40;0.30;;;8.00;99.90;;;;;;5032079;28;20206;-58
2023/01/16 11:09:19;;;;;;;1.17;0.40;;;8.10;99.90;;;;;;5032765;28;20226;-58
2023/01/16 11:20:16;;;;;;;2.13;0.80;;;8.70;99.90;;;;;;5033499;28;20218;-55
2023/01/16 11:22:48;;;;;;;1.30;0.37;;;8.70;99.90;;;;;;5033710;28;20229;-56
2023/01/16 11:25:19;;;;;;;0.30;0.30;;;8.80;99.90;;;;;;5033589;28;20229;-57
2023/01/16 11:27:49;;;;;;;1.70;0.80;;;8.80;99.90;;;;;;5033297;28;20226;-56
2023/01/16 11:30:19;;;;;;;1.47;0.50;;;8.80;99.90;;;;;;5033301;28;20216;-57
2023/01/16 11:32:49;;;;;;;1.03;0.57;;;8.90;99.90;;;;;;5033368;28;20268;-57
2023/01/16 11:35:18;;;;;;;1.77;0.50;;;9.00;99.90;;;;;;5033559;28;20209;-56
2023/01/16 11:37:49;;;;;;;1.20;0.47;;;9.00;99.90;;;;;;5032504;28;20713;-56
2023/01/16 11:40:21;;;;;;;0.50;0.20;;;9.10;99.90;;;;;;5033120;28;20199;-56
2023/01/16 11:46:03;;;;;;;0.77;0.30;;;9.10;99.90;;;;;;5033194;28;20221;-56
2023/01/16 11:48:38;;;;;;;0.83;0.50;;;9.00;99.90;;;;;;5032980;28;20238;-56
2023/01/16 11:51:07;;;;;;;1.23;0.53;;;9.00;99.90;;;;;;5033071;28;20205;-57
2023/01/16 11:53:36;;;;;;;1.40;0.30;;;9.00;99.90;;;;;;5033025;28;20210;-57
2023/01/16 11:56:20;;;;;;;0.27;0.20;;;8.90;99.90;;;;;;5032956;28;20575;-55
2023/01/16 11:59:06;;;;;;;1.80;0.40;;;8.80;99.90;;;;;;5032733;28;20230;-56
2023/01/16 12:04:25;;;;;;;0.57;0.30;;;8.60;99.90;;;;;;5031642;28;20206;-56
2023/01/16 12:07:03;;;;;;;0.20;0.20;;;8.50;99.90;;;;;;5032938;28;20206;-55
2023/01/16 12:09:43;;;;;;;0.30;0.30;;;8.60;99.90;;;;;;5032893;28;20295;-55
2023/01/16 12:15:22;;;;;;;0.83;0.67;;;8.50;99.90;;;;;;5032673;28;20204;-55
2023/01/16 12:18:05;;;;;;;0.27;0.27;;;8.60;99.90;;;;;;5032539;28;20295;-55
2023/01/16 12:20:44;;;;;;;0.90;0.43;;;8.70;99.90;;;;;;5032481;28;20296;-55
2023/01/16 12:23:33;;;;;;;0.50;0.40;;;8.70;99.90;;;;;;5032378;28;20226;-55
2023/01/16 12:26:12;;;;;;;1.03;0.70;;;8.80;99.90;;;;;;5032160;28;20252;-55
2023/01/16 12:28:47;;;;;;;0.60;0.30;;;8.90;99.90;;;;;;5032370;28;20248;-55
2023/01/16 12:31:36;;;;;;;1.10;0.40;;;8.90;99.90;;;;;;5031673;28;20205;-55
2023/01/16 12:34:39;;;;;;;1.33;0.30;;;9.10;99.90;;;;;;5032286;28;20569;-55
2023/01/16 12:37:23;;;;;;;0.43;0.40;;;9.10;99.90;;;;;;5031882;28;20244;-55
2023/01/16 12:39:56;;;;;;;0.97;0.50;;;9.20;99.90;;;;;;5032213;28;20272;-55
2023/01/16 12:45:34;;;;;;;0.33;0.33;;;9.30;99.90;;;;;;5032517;28;20201;-55
2023/01/16 12:48:27;;;;;;;0.70;0.70;;;9.40;99.90;;;;;;5031789;28;20261;-55
2023/01/16 12:51:08;;;;;;;1.77;0.37;;;9.50;99.90;;;;;;5036380;28;20218;-55
2023/01/16 12:54:10;;;;;;;0.20;0.20;;;9.60;99.90;;;;;;5035981;28;20809;-56
2023/01/16 12:56:47;;;;;;;0.47;0.30;;;9.60;99.90;;;;;;5035916;28;20205;-55
2023/01/16 12:59:18;;;;;;;0.70;0.30;;;9.80;99.90;;;;;;5036310;28;20324;-55
2023/01/16 13:01:49;;;;;;;0.53;0.30;;;9.90;99.90;;;;;;5036237;28;20225;-55
2023/01/16 13:04:21;;;;;;;0.90;0.57;;;10.10;99.90;;;;;;5035948;28;20202;-55
2023/01/16 13:06:51;;;;;;;2.23;0.53;;;10.20;99.90;;;;;;5035557;28;20292;-55
2023/01/16 13:09:24;;;;;;;0.60;0.40;;;10.20;99.90;;;;;;5036059;28;20234;-56
2023/01/16 13:14:52;;;;;;;0.50;0.30;;;10.20;99.90;;;;;;5035759;28;20685;-55
2023/01/16 13:17:24;;;;;;;0.70;0.70;;;10.30;99.90;;;;;;5035523;28;20681;-55
2023/01/16 13:19:52;;;;;;;0.27;0.27;;;10.30;99.90;;;;;;5035955;28;20213;-57
2023/01/16 13:22:28;;;;;;;1.13;0.80;;;10.20;99.90;;;;;;5035887;28;20300;-56
2023/01/16 13:25:01;;;;;;;0.47;0.43;;;10.20;99.90;;;;;;5035848;28;20206;-56
2023/01/16 13:27:38;;;;;;;1.30;0.30;;;10.20;99.90;;;;;;5034770;28;20693;-56
2023/01/16 13:30:12;;;;;;;0.30;0.30;;;10.30;99.90;;;;;;5035595;28;20206;-56
2023/01/16 13:32:43;;;;;;;0.30;0.30;;;10.30;99.90;;;;;;5035379;28;20245;-56
2023/01/16 13:35:17;;;;;;;0.90;0.40;;;10.30;99.90;;;;;;5032137;28;20446;-57
2023/01/16 13:38:11;;;;;;;0.50;0.40;;;10.40;99.90;;;;;;5033701;28;20507;-57
2023/01/16 13:41:12;;;;;;;0.97;0.50;;;10.30;99.90;;;;;;5034175;28;20649;-57
2023/01/16 13:46:29;;;;;;;1.97;0.40;;;10.50;99.90;;;;;;5034752;28;20664;-60
2023/01/16 13:49:01;;;;;;;1.87;0.40;;;10.60;99.90;;;;;;5034848;28;20238;-60
2023/01/16 13:51:28;;;;;;;0.63;0.50;;;10.70;99.90;;;;;;5034593;28;20210;-60
2023/01/16 13:53:58;;;;;;;2.13;1.00;;;10.80;99.90;;;;;;5034457;28;20616;-60
2023/01/16 13:56:30;;;;;;;0.93;0.70;;;11.00;99.90;;;;;;5034307;28;20568;-61
2023/01/16 13:59:02;;;;;;;0.77;0.60;;;11.00;99.90;;;;;;5034498;28;20284;-61
2023/01/16 14:01:32;;;;;;;1.77;0.40;;;11.30;99.90;;;;;;5034513;28;20588;-60
2023/01/16 14:04:28;;;;;;;0.40;0.33;;;11.30;99.90;;;;;;5035066;28;20671;-58
2023/01/16 14:10:00;;;;;;;2.00;0.40;;;11.60;99.90;;;;;;5033042;28;20222;-59
2023/01/16 14:12:35;;;;;;;0.33;0.20;;;11.60;99.90;;;;;;5034168;28;20206;-59
2023/01/16 14:18:18;;;;;;;0.40;0.40;;;11.40;99.90;;;;;;5034062;28;20601;-58
2023/01/16 14:20:52;;;;;;;1.30;0.80;;;11.20;99.90;;;;;;5034196;28;20267;-58
2023/01/16 14:26:10;;;;;;;0.73;0.53;;;11.10;99.90;;;;;;5033375;28;20280;-57
2023/01/16 14:28:40;;;;;;;1.53;0.53;;;11.10;99.90;;;;;;5033041;28;20254;-59
2023/01/16 14:31:22;;;;;;;2.00;0.33;;;10.90;99.90;;;;;;5033591;28;20237;-61